SNJ33 RJTT-RJFU
Flight info
| Callsign | SNJ33 |
|---|---|
| Flight time | 1h 43m |
| Altitude | 30000 |
| Route | GUSRO Y20 KAMMY Y204 OHGIE |
| Aircraft | B738/M-SDE2E3FGHIRWXY/LB1 |
Departure
| Time | 2026-04-30 06:31 |
|---|---|
| Airport | Tokyo Haneda International Airport (RJTT) |
Arrival
| Time | 2026-04-30 08:14 |
|---|---|
| Airport | Nagasaki Airport (RJFU) |
| Time | Latitude | Longitude | Altitude | Speed | Heading |
|---|---|---|---|---|---|
| 2026-04-30 05:54 | 35.55585 | 139.78796 | 26 ft | 0 kts | 150° |
| 2026-04-30 06:11 | 35.55571 | 139.78807 | 27 ft | 0 kts | 150° |
| 2026-04-30 06:14 | 35.55585 | 139.78796 | 32 ft | 0 kts | 150° |
| 2026-04-30 06:20 | 35.55599 | 139.78787 | 30 ft | 4 kts | 150° |
| 2026-04-30 06:20 | 35.55618 | 139.78773 | 31 ft | 3 kts | 148° |
| 2026-04-30 06:21 | 35.55636 | 139.78752 | 30 ft | 4 kts | 105° |
| 2026-04-30 06:21 | 35.55634 | 139.78722 | 29 ft | 4 kts | 65° |
| 2026-04-30 06:21 | 35.55629 | 139.78711 | 29 ft | 1 kts | 60° |
| 2026-04-30 06:24 | 35.55632 | 139.78716 | 25 ft | 5 kts | 60° |
| 2026-04-30 06:25 | 35.55656 | 139.78767 | 27 ft | 8 kts | 60° |
| 2026-04-30 06:25 | 35.55696 | 139.78852 | 25 ft | 14 kts | 60° |
| 2026-04-30 06:25 | 35.55740 | 139.78947 | 27 ft | 13 kts | 68° |
| 2026-04-30 06:25 | 35.55700 | 139.79032 | 27 ft | 13 kts | 151° |
| 2026-04-30 06:26 | 35.55625 | 139.79084 | 26 ft | 12 kts | 150° |
| 2026-04-30 06:26 | 35.55552 | 139.79136 | 26 ft | 12 kts | 150° |
| 2026-04-30 06:26 | 35.55479 | 139.79188 | 27 ft | 12 kts | 150° |
| 2026-04-30 06:26 | 35.55408 | 139.79238 | 26 ft | 12 kts | 150° |
| 2026-04-30 06:27 | 35.55340 | 139.79286 | 27 ft | 11 kts | 150° |
| 2026-04-30 06:27 | 35.55271 | 139.79335 | 28 ft | 11 kts | 149° |
| 2026-04-30 06:27 | 35.55201 | 139.79385 | 30 ft | 13 kts | 150° |
| 2026-04-30 06:27 | 35.55115 | 139.79446 | 26 ft | 16 kts | 149° |
| 2026-04-30 06:28 | 35.55009 | 139.79521 | 28 ft | 20 kts | 150° |
| 2026-04-30 06:28 | 35.54878 | 139.79614 | 25 ft | 23 kts | 150° |
| 2026-04-30 06:28 | 35.54729 | 139.79720 | 25 ft | 27 kts | 150° |
| 2026-04-30 06:28 | 35.54564 | 139.79837 | 26 ft | 28 kts | 150° |
| 2026-04-30 06:29 | 35.54398 | 139.79954 | 21 ft | 27 kts | 150° |
| 2026-04-30 06:29 | 35.54246 | 139.80062 | 21 ft | 21 kts | 150° |
| 2026-04-30 06:29 | 35.54198 | 139.80172 | 24 ft | 16 kts | 63° |
| 2026-04-30 06:29 | 35.54257 | 139.80274 | 26 ft | 14 kts | 29° |
| 2026-04-30 06:30 | 35.54347 | 139.80246 | 27 ft | 14 kts | 330° |
| 2026-04-30 06:30 | 35.54639 | 139.80040 | 27 ft | 90 kts | 330° |
| 2026-04-30 06:30 | 35.55413 | 139.79505 | 48 ft | 160 kts | 334° |
| 2026-04-30 06:30 | 35.56473 | 139.78756 | 617 ft | 186 kts | 331° |
| 2026-04-30 06:31 | 35.57702 | 139.78103 | 1535 ft | 192 kts | 0° |
| 2026-04-30 06:31 | 35.58932 | 139.78567 | 2422 ft | 200 kts | 41° |
| 2026-04-30 06:31 | 35.59732 | 139.80042 | 2706 ft | 218 kts | 68° |
| 2026-04-30 06:31 | 35.60385 | 139.81789 | 3176 ft | 231 kts | 66° |
| 2026-04-30 06:32 | 35.60990 | 139.83637 | 3766 ft | 235 kts | 82° |
| 2026-04-30 06:32 | 35.61038 | 139.85625 | 4298 ft | 243 kts | 93° |
| 2026-04-30 06:32 | 35.60998 | 139.87813 | 4790 ft | 260 kts | 92° |
| 2026-04-30 06:32 | 35.60964 | 139.90068 | 5538 ft | 267 kts | 93° |
| 2026-04-30 06:33 | 35.60987 | 139.92325 | 6221 ft | 278 kts | 84° |
| 2026-04-30 06:33 | 35.61753 | 139.94585 | 6918 ft | 291 kts | 52° |
| 2026-04-30 06:33 | 35.63386 | 139.96072 | 7775 ft | 292 kts | 19° |
| 2026-04-30 06:33 | 35.65356 | 139.96449 | 8624 ft | 292 kts | 2° |
| 2026-04-30 06:34 | 35.67404 | 139.96539 | 9432 ft | 296 kts | 1° |
| 2026-04-30 06:34 | 35.69480 | 139.96624 | 10236 ft | 300 kts | 360° |
| 2026-04-30 06:34 | 35.71560 | 139.96158 | 10518 ft | 320 kts | 334° |
| 2026-04-30 06:34 | 35.73380 | 139.94458 | 10715 ft | 339 kts | 306° |
| 2026-04-30 06:35 | 35.74370 | 139.91797 | 11029 ft | 350 kts | 279° |
| 2026-04-30 06:35 | 35.74697 | 139.88831 | 11753 ft | 351 kts | 275° |
| 2026-04-30 06:35 | 35.74983 | 139.85838 | 12654 ft | 349 kts | 275° |
| 2026-04-30 06:35 | 35.75289 | 139.82891 | 13529 ft | 348 kts | 276° |
| 2026-04-30 06:36 | 35.75624 | 139.79932 | 14324 ft | 348 kts | 277° |
| 2026-04-30 06:36 | 35.75972 | 139.76983 | 14980 ft | 350 kts | 277° |
| 2026-04-30 06:36 | 35.76188 | 139.73984 | 15584 ft | 353 kts | 266° |
| 2026-04-30 06:36 | 35.75720 | 139.71021 | 16226 ft | 355 kts | 251° |
| 2026-04-30 06:37 | 35.74676 | 139.68262 | 16897 ft | 357 kts | 244° |
| 2026-04-30 06:37 | 35.73500 | 139.65549 | 17495 ft | 360 kts | 244° |
| 2026-04-30 06:37 | 35.72298 | 139.62828 | 18041 ft | 364 kts | 244° |
| 2026-04-30 06:37 | 35.71094 | 139.60082 | 18606 ft | 366 kts | 244° |
| 2026-04-30 06:38 | 35.69895 | 139.57306 | 19131 ft | 368 kts | 245° |
| 2026-04-30 06:38 | 35.68700 | 139.54511 | 19659 ft | 369 kts | 245° |
| 2026-04-30 06:38 | 35.67526 | 139.51758 | 20165 ft | 370 kts | 245° |
| 2026-04-30 06:38 | 35.66369 | 139.48909 | 20665 ft | 370 kts | 251° |
| 2026-04-30 06:39 | 35.65741 | 139.45883 | 21153 ft | 369 kts | 265° |
| 2026-04-30 06:39 | 35.65685 | 139.42732 | 21681 ft | 369 kts | 272° |
| 2026-04-30 06:39 | 35.65788 | 139.39552 | 22261 ft | 370 kts | 272° |
| 2026-04-30 06:39 | 35.65878 | 139.36427 | 22738 ft | 371 kts | 272° |
| 2026-04-30 06:40 | 35.65946 | 139.33210 | 23218 ft | 372 kts | 271° |
| 2026-04-30 06:40 | 35.65996 | 139.30024 | 23723 ft | 373 kts | 271° |
| 2026-04-30 06:40 | 35.66037 | 139.26836 | 24143 ft | 374 kts | 271° |
| 2026-04-30 06:40 | 35.66076 | 139.23628 | 24479 ft | 376 kts | 271° |
| 2026-04-30 06:41 | 35.66116 | 139.20410 | 24829 ft | 378 kts | 270° |
| 2026-04-30 06:41 | 35.66157 | 139.17178 | 25189 ft | 379 kts | 270° |
| 2026-04-30 06:41 | 35.66196 | 139.13926 | 25564 ft | 380 kts | 270° |
| 2026-04-30 06:41 | 35.66143 | 139.10655 | 25896 ft | 382 kts | 267° |
| 2026-04-30 06:42 | 35.66003 | 139.07385 | 26175 ft | 384 kts | 266° |
| 2026-04-30 06:42 | 35.65835 | 139.04088 | 26468 ft | 386 kts | 265° |
| 2026-04-30 06:42 | 35.65668 | 139.00825 | 26768 ft | 388 kts | 265° |
| 2026-04-30 06:42 | 35.65502 | 138.97459 | 27081 ft | 390 kts | 265° |
| 2026-04-30 06:43 | 35.65346 | 138.94165 | 27364 ft | 392 kts | 265° |
| 2026-04-30 06:43 | 35.65189 | 138.90759 | 27607 ft | 395 kts | 265° |
| 2026-04-30 06:43 | 35.65039 | 138.87443 | 28011 ft | 393 kts | 265° |
| 2026-04-30 06:43 | 35.64887 | 138.84092 | 28378 ft | 392 kts | 265° |
| 2026-04-30 06:44 | 35.64736 | 138.80752 | 28838 ft | 390 kts | 264° |
| 2026-04-30 06:44 | 35.64584 | 138.77422 | 29304 ft | 389 kts | 264° |
| 2026-04-30 06:44 | 35.64429 | 138.74109 | 29653 ft | 389 kts | 264° |
| 2026-04-30 06:44 | 35.64275 | 138.70778 | 29943 ft | 391 kts | 264° |
| 2026-04-30 06:45 | 35.64119 | 138.67431 | 30233 ft | 392 kts | 263° |
| 2026-04-30 06:45 | 35.63782 | 138.60692 | 30224 ft | 394 kts | 263° |
| 2026-04-30 06:46 | 35.63430 | 138.53999 | 30227 ft | 391 kts | 263° |
| 2026-04-30 06:46 | 35.63077 | 138.47328 | 30211 ft | 391 kts | 263° |
| 2026-04-30 06:47 | 35.62725 | 138.40700 | 30201 ft | 390 kts | 263° |
| 2026-04-30 06:47 | 35.62369 | 138.34070 | 30207 ft | 389 kts | 263° |
| 2026-04-30 06:48 | 35.62010 | 138.27426 | 30209 ft | 390 kts | 263° |
| 2026-04-30 06:48 | 35.61646 | 138.20748 | 30199 ft | 393 kts | 263° |
| 2026-04-30 06:49 | 35.61272 | 138.14016 | 30194 ft | 396 kts | 262° |
| 2026-04-30 06:49 | 35.60895 | 138.07248 | 30180 ft | 397 kts | 262° |
| 2026-04-30 06:50 | 35.60511 | 138.00485 | 30182 ft | 396 kts | 262° |
| 2026-04-30 06:50 | 35.60125 | 137.93749 | 30169 ft | 395 kts | 262° |
| 2026-04-30 06:51 | 35.59738 | 137.87021 | 30157 ft | 394 kts | 262° |
| 2026-04-30 06:51 | 35.59349 | 137.80333 | 30165 ft | 391 kts | 262° |
| 2026-04-30 06:52 | 35.58973 | 137.74792 | 30166 ft | 391 kts | 261° |
| 2026-04-30 06:52 | 35.58374 | 137.67047 | 30164 ft | 392 kts | 261° |
| 2026-04-30 06:53 | 35.57865 | 137.60358 | 30148 ft | 393 kts | 261° |
| 2026-04-30 06:53 | 35.57343 | 137.53681 | 30165 ft | 391 kts | 259° |
| 2026-04-30 06:54 | 35.56345 | 137.48302 | 30156 ft | 388 kts | 252° |
| 2026-04-30 06:54 | 35.54918 | 137.41879 | 30150 ft | 389 kts | 253° |
| 2026-04-30 06:55 | 35.53511 | 137.35449 | 30147 ft | 391 kts | 253° |
| 2026-04-30 06:55 | 35.52134 | 137.29124 | 30144 ft | 392 kts | 253° |
| 2026-04-30 06:56 | 35.50720 | 137.22667 | 30152 ft | 392 kts | 252° |
| 2026-04-30 06:56 | 35.49285 | 137.16199 | 30156 ft | 393 kts | 252° |
| 2026-04-30 06:57 | 35.47842 | 137.09722 | 30162 ft | 393 kts | 252° |
| 2026-04-30 06:57 | 35.46406 | 137.03278 | 30153 ft | 394 kts | 252° |
| 2026-04-30 06:58 | 35.44959 | 136.96800 | 30150 ft | 394 kts | 252° |
| 2026-04-30 06:58 | 35.43509 | 136.90325 | 30160 ft | 393 kts | 252° |
| 2026-04-30 06:59 | 35.42057 | 136.83859 | 30152 ft | 393 kts | 252° |
| 2026-04-30 06:59 | 35.40603 | 136.77403 | 30143 ft | 392 kts | 252° |
| 2026-04-30 07:00 | 35.39149 | 136.70963 | 30146 ft | 392 kts | 252° |
| 2026-04-30 07:00 | 35.37701 | 136.64569 | 30144 ft | 391 kts | 252° |
| 2026-04-30 07:01 | 35.36248 | 136.58165 | 30140 ft | 390 kts | 252° |
| 2026-04-30 07:01 | 35.34788 | 136.51750 | 30116 ft | 389 kts | 252° |
| 2026-04-30 07:02 | 35.33335 | 136.45378 | 30137 ft | 389 kts | 252° |
| 2026-04-30 07:02 | 35.31877 | 136.38997 | 30118 ft | 389 kts | 252° |
| 2026-04-30 07:03 | 35.30413 | 136.32603 | 30116 ft | 389 kts | 251° |
| 2026-04-30 07:03 | 35.28950 | 136.26219 | 30112 ft | 389 kts | 251° |
| 2026-04-30 07:04 | 35.27496 | 136.19893 | 30112 ft | 389 kts | 251° |
| 2026-04-30 07:04 | 35.26030 | 136.13529 | 30101 ft | 388 kts | 251° |
| 2026-04-30 07:05 | 35.23863 | 136.04147 | 30103 ft | 383 kts | 251° |
| 2026-04-30 07:05 | 35.22415 | 135.97899 | 30098 ft | 381 kts | 251° |
| 2026-04-30 07:06 | 35.20969 | 135.91677 | 30091 ft | 380 kts | 251° |
| 2026-04-30 07:06 | 35.19526 | 135.85479 | 30094 ft | 377 kts | 251° |
| 2026-04-30 07:07 | 35.18118 | 135.79364 | 30078 ft | 376 kts | 253° |
| 2026-04-30 07:07 | 35.17037 | 135.73121 | 30077 ft | 375 kts | 255° |
| 2026-04-30 07:08 | 35.15999 | 135.66839 | 30083 ft | 374 kts | 255° |
| 2026-04-30 07:08 | 35.14966 | 135.60668 | 30070 ft | 372 kts | 255° |
| 2026-04-30 07:09 | 35.13920 | 135.54494 | 30084 ft | 369 kts | 255° |
| 2026-04-30 07:09 | 35.12875 | 135.48361 | 30055 ft | 368 kts | 255° |
| 2026-04-30 07:10 | 35.11830 | 135.42246 | 30068 ft | 367 kts | 255° |
| 2026-04-30 07:10 | 35.10786 | 135.36156 | 30064 ft | 368 kts | 255° |
| 2026-04-30 07:11 | 35.09730 | 135.30023 | 30052 ft | 369 kts | 255° |
| 2026-04-30 07:11 | 35.08672 | 135.23861 | 30045 ft | 372 kts | 255° |
| 2026-04-30 07:12 | 35.07622 | 135.17712 | 30056 ft | 373 kts | 255° |
| 2026-04-30 07:12 | 35.06560 | 135.11509 | 30053 ft | 373 kts | 255° |
| 2026-04-30 07:13 | 35.05494 | 135.05308 | 30038 ft | 372 kts | 255° |
| 2026-04-30 07:13 | 35.04429 | 134.99123 | 30041 ft | 372 kts | 255° |
| 2026-04-30 07:14 | 35.03355 | 134.92923 | 30036 ft | 373 kts | 255° |
| 2026-04-30 07:14 | 35.02275 | 134.86780 | 30040 ft | 373 kts | 254° |
| 2026-04-30 07:15 | 35.01175 | 134.80580 | 30042 ft | 374 kts | 254° |
| 2026-04-30 07:15 | 35.00073 | 134.74370 | 30042 ft | 375 kts | 254° |
| 2026-04-30 07:16 | 34.98931 | 134.68182 | 30040 ft | 374 kts | 251° |
| 2026-04-30 07:16 | 34.97397 | 134.62130 | 30043 ft | 373 kts | 250° |
| 2026-04-30 07:17 | 34.95817 | 134.56130 | 30040 ft | 372 kts | 249° |
| 2026-04-30 07:18 | 34.93454 | 134.47098 | 30059 ft | 373 kts | 250° |
| 2026-04-30 07:18 | 34.91891 | 134.41107 | 30032 ft | 374 kts | 249° |
| 2026-04-30 07:19 | 34.90312 | 134.35058 | 30036 ft | 374 kts | 249° |
| 2026-04-30 07:19 | 34.88738 | 134.29033 | 30049 ft | 373 kts | 249° |
| 2026-04-30 07:20 | 34.87157 | 134.23003 | 30027 ft | 373 kts | 249° |
| 2026-04-30 07:20 | 34.85587 | 134.17025 | 30027 ft | 372 kts | 249° |
| 2026-04-30 07:21 | 34.84002 | 134.11003 | 30024 ft | 371 kts | 249° |
| 2026-04-30 07:21 | 34.82422 | 134.05011 | 30027 ft | 370 kts | 249° |
| 2026-04-30 07:22 | 34.80051 | 133.96053 | 30022 ft | 373 kts | 249° |
| 2026-04-30 07:22 | 34.78453 | 133.90033 | 30021 ft | 374 kts | 249° |
| 2026-04-30 07:23 | 34.76853 | 133.84018 | 30021 ft | 375 kts | 249° |
| 2026-04-30 07:23 | 34.75240 | 133.77963 | 30020 ft | 375 kts | 249° |
| 2026-04-30 07:24 | 34.73628 | 133.71926 | 30024 ft | 376 kts | 249° |
| 2026-04-30 07:24 | 34.72004 | 133.65861 | 30028 ft | 377 kts | 249° |
| 2026-04-30 07:25 | 34.70380 | 133.59809 | 30041 ft | 375 kts | 249° |
| 2026-04-30 07:25 | 34.68763 | 133.53790 | 30008 ft | 375 kts | 249° |
| 2026-04-30 07:26 | 34.67138 | 133.47763 | 30022 ft | 375 kts | 249° |
| 2026-04-30 07:26 | 34.65516 | 133.41757 | 30008 ft | 376 kts | 248° |
| 2026-04-30 07:27 | 34.63882 | 133.35720 | 30009 ft | 376 kts | 248° |
| 2026-04-30 07:27 | 34.62247 | 133.29691 | 30009 ft | 376 kts | 248° |
| 2026-04-30 07:28 | 34.60603 | 133.23643 | 29971 ft | 377 kts | 248° |
| 2026-04-30 07:28 | 34.58956 | 133.17602 | 29994 ft | 377 kts | 248° |
| 2026-04-30 07:29 | 34.57326 | 133.11631 | 29967 ft | 377 kts | 248° |
| 2026-04-30 07:29 | 34.55658 | 133.05538 | 29985 ft | 376 kts | 248° |
| 2026-04-30 07:30 | 34.53178 | 132.96496 | 29959 ft | 377 kts | 248° |
| 2026-04-30 07:31 | 34.51521 | 132.90474 | 29962 ft | 377 kts | 248° |
| 2026-04-30 07:31 | 34.49857 | 132.84440 | 29967 ft | 377 kts | 248° |
| 2026-04-30 07:32 | 34.48189 | 132.78396 | 29964 ft | 377 kts | 248° |
| 2026-04-30 07:32 | 34.46518 | 132.72366 | 29977 ft | 377 kts | 248° |
| 2026-04-30 07:33 | 34.44837 | 132.66329 | 29968 ft | 378 kts | 248° |
| 2026-04-30 07:33 | 34.43163 | 132.60323 | 29993 ft | 378 kts | 248° |
| 2026-04-30 07:34 | 34.41473 | 132.54272 | 29969 ft | 379 kts | 248° |
| 2026-04-30 07:34 | 34.39783 | 132.48232 | 29965 ft | 380 kts | 248° |
| 2026-04-30 07:35 | 34.38083 | 132.42168 | 29967 ft | 380 kts | 248° |
| 2026-04-30 07:35 | 34.36385 | 132.36122 | 29963 ft | 380 kts | 248° |
| 2026-04-30 07:36 | 34.34676 | 132.30055 | 29961 ft | 381 kts | 248° |
| 2026-04-30 07:36 | 34.33244 | 132.24980 | 29989 ft | 383 kts | 248° |
| 2026-04-30 07:37 | 34.31509 | 132.18842 | 29947 ft | 385 kts | 248° |
| 2026-04-30 07:37 | 34.29782 | 132.12742 | 29962 ft | 383 kts | 248° |
| 2026-04-30 07:38 | 34.28059 | 132.06671 | 29954 ft | 381 kts | 247° |
| 2026-04-30 07:38 | 34.26336 | 132.00616 | 29947 ft | 381 kts | 247° |
| 2026-04-30 07:39 | 34.24613 | 131.94578 | 29959 ft | 384 kts | 247° |
| 2026-04-30 07:39 | 34.22860 | 131.88448 | 29930 ft | 387 kts | 247° |
| 2026-04-30 07:40 | 34.21089 | 131.82268 | 29940 ft | 390 kts | 247° |
| 2026-04-30 07:40 | 34.19340 | 131.76157 | 29929 ft | 381 kts | 247° |
| 2026-04-30 07:41 | 34.17586 | 131.70058 | 29932 ft | 386 kts | 247° |
| 2026-04-30 07:41 | 34.15815 | 131.63919 | 29941 ft | 387 kts | 247° |
| 2026-04-30 07:42 | 34.14039 | 131.57770 | 29923 ft | 388 kts | 247° |
| 2026-04-30 07:42 | 34.12265 | 131.51637 | 29930 ft | 386 kts | 247° |
| 2026-04-30 07:43 | 34.10500 | 131.45550 | 29937 ft | 384 kts | 247° |
| 2026-04-30 07:43 | 34.08738 | 131.39485 | 29912 ft | 385 kts | 247° |
| 2026-04-30 07:44 | 34.06965 | 131.33397 | 29917 ft | 385 kts | 247° |
| 2026-04-30 07:44 | 34.04779 | 131.27558 | 29921 ft | 381 kts | 241° |
| 2026-04-30 07:45 | 34.02376 | 131.21856 | 29915 ft | 381 kts | 241° |
| 2026-04-30 07:45 | 34.00024 | 131.16233 | 29899 ft | 365 kts | 241° |
| 2026-04-30 07:46 | 33.97771 | 131.10831 | 29932 ft | 358 kts | 241° |
| 2026-04-30 07:46 | 33.95521 | 131.05450 | 29530 ft | 358 kts | 241° |
| 2026-04-30 07:46 | 33.94405 | 131.02777 | 29061 ft | 354 kts | 241° |
| 2026-04-30 07:47 | 33.93322 | 131.00180 | 28625 ft | 349 kts | 241° |
| 2026-04-30 07:47 | 33.92226 | 130.97551 | 28175 ft | 345 kts | 241° |
| 2026-04-30 07:47 | 33.91166 | 130.95008 | 27719 ft | 342 kts | 241° |
| 2026-04-30 07:47 | 33.90104 | 130.92466 | 27286 ft | 339 kts | 240° |
| 2026-04-30 07:48 | 33.89050 | 130.89944 | 26849 ft | 336 kts | 240° |
| 2026-04-30 07:48 | 33.88000 | 130.87432 | 26418 ft | 333 kts | 240° |
| 2026-04-30 07:48 | 33.86959 | 130.84945 | 25987 ft | 331 kts | 240° |
| 2026-04-30 07:48 | 33.85930 | 130.82488 | 25562 ft | 328 kts | 241° |
| 2026-04-30 07:49 | 33.84906 | 130.80045 | 25158 ft | 327 kts | 241° |
| 2026-04-30 07:49 | 33.83880 | 130.77598 | 24729 ft | 326 kts | 240° |
| 2026-04-30 07:49 | 33.82862 | 130.75172 | 24297 ft | 326 kts | 240° |
| 2026-04-30 07:49 | 33.81839 | 130.72736 | 23875 ft | 324 kts | 240° |
| 2026-04-30 07:50 | 33.80826 | 130.70325 | 23450 ft | 324 kts | 240° |
| 2026-04-30 07:50 | 33.79808 | 130.67905 | 22978 ft | 324 kts | 240° |
| 2026-04-30 07:50 | 33.78925 | 130.65809 | 22568 ft | 324 kts | 240° |
| 2026-04-30 07:50 | 33.77882 | 130.63333 | 22127 ft | 325 kts | 240° |
| 2026-04-30 07:51 | 33.76858 | 130.60902 | 21686 ft | 325 kts | 241° |
| 2026-04-30 07:51 | 33.75840 | 130.58488 | 21249 ft | 323 kts | 241° |
| 2026-04-30 07:51 | 33.74838 | 130.56111 | 20841 ft | 321 kts | 241° |
| 2026-04-30 07:51 | 33.73837 | 130.53739 | 20427 ft | 318 kts | 241° |
| 2026-04-30 07:52 | 33.72825 | 130.51343 | 20025 ft | 316 kts | 241° |
| 2026-04-30 07:52 | 33.71843 | 130.49019 | 19627 ft | 314 kts | 242° |
| 2026-04-30 07:52 | 33.70856 | 130.46686 | 19224 ft | 313 kts | 242° |
| 2026-04-30 07:52 | 33.69871 | 130.44361 | 18829 ft | 311 kts | 242° |
| 2026-04-30 07:53 | 33.68879 | 130.42054 | 18417 ft | 310 kts | 239° |
| 2026-04-30 07:53 | 33.67572 | 130.39996 | 18027 ft | 311 kts | 228° |
| 2026-04-30 07:53 | 33.65982 | 130.38198 | 17363 ft | 321 kts | 220° |
| 2026-04-30 07:53 | 33.64077 | 130.36741 | 16917 ft | 327 kts | 211° |
| 2026-04-30 07:54 | 33.62057 | 130.35480 | 16469 ft | 329 kts | 210° |
| 2026-04-30 07:54 | 33.60004 | 130.34242 | 16041 ft | 327 kts | 209° |
| 2026-04-30 07:54 | 33.57986 | 130.33029 | 15649 ft | 323 kts | 209° |
| 2026-04-30 07:54 | 33.55990 | 130.31822 | 15262 ft | 320 kts | 209° |
| 2026-04-30 07:55 | 33.54004 | 130.30614 | 14887 ft | 317 kts | 209° |
| 2026-04-30 07:55 | 33.52048 | 130.29418 | 14503 ft | 315 kts | 209° |
| 2026-04-30 07:55 | 33.50127 | 130.28241 | 14132 ft | 313 kts | 209° |
| 2026-04-30 07:55 | 33.48190 | 130.27053 | 13749 ft | 310 kts | 208° |
| 2026-04-30 07:56 | 33.46270 | 130.25874 | 13328 ft | 309 kts | 208° |
| 2026-04-30 07:56 | 33.44365 | 130.24705 | 12936 ft | 306 kts | 208° |
| 2026-04-30 07:56 | 33.42478 | 130.23547 | 12584 ft | 303 kts | 208° |
| 2026-04-30 07:56 | 33.40618 | 130.22406 | 12266 ft | 299 kts | 208° |
| 2026-04-30 07:57 | 33.38768 | 130.21272 | 11887 ft | 298 kts | 208° |
| 2026-04-30 07:57 | 33.36925 | 130.20143 | 11516 ft | 296 kts | 208° |
| 2026-04-30 07:57 | 33.35097 | 130.19024 | 11161 ft | 294 kts | 208° |
| 2026-04-30 07:57 | 33.33274 | 130.17998 | 11014 ft | 286 kts | 199° |
| 2026-04-30 07:58 | 33.31307 | 130.17638 | 10734 ft | 285 kts | 185° |
| 2026-04-30 07:58 | 33.29338 | 130.17536 | 10489 ft | 281 kts | 184° |
| 2026-04-30 07:58 | 33.27397 | 130.17433 | 10282 ft | 276 kts | 184° |
| 2026-04-30 07:58 | 33.25777 | 130.17341 | 10295 ft | 262 kts | 185° |
| 2026-04-30 07:59 | 33.24035 | 130.17238 | 10193 ft | 244 kts | 185° |
| 2026-04-30 07:59 | 33.22407 | 130.17140 | 10072 ft | 225 kts | 185° |
| 2026-04-30 07:59 | 33.20908 | 130.17047 | 9937 ft | 208 kts | 185° |
| 2026-04-30 08:00 | 33.18115 | 130.16869 | 9182 ft | 200 kts | 184° |
| 2026-04-30 08:00 | 33.16740 | 130.16780 | 8898 ft | 194 kts | 184° |
| 2026-04-30 08:00 | 33.15397 | 130.16694 | 8684 ft | 192 kts | 184° |
| 2026-04-30 08:00 | 33.14046 | 130.16608 | 8510 ft | 197 kts | 184° |
| 2026-04-30 08:01 | 33.12657 | 130.16518 | 8333 ft | 202 kts | 184° |
| 2026-04-30 08:01 | 33.11254 | 130.16429 | 8127 ft | 201 kts | 184° |
| 2026-04-30 08:01 | 33.09863 | 130.16340 | 7952 ft | 200 kts | 184° |
| 2026-04-30 08:01 | 33.08477 | 130.16252 | 7781 ft | 199 kts | 184° |
| 2026-04-30 08:02 | 33.05784 | 130.16082 | 7425 ft | 186 kts | 184° |
| 2026-04-30 08:02 | 33.04525 | 130.16002 | 7258 ft | 182 kts | 184° |
| 2026-04-30 08:03 | 33.01986 | 130.15841 | 7079 ft | 178 kts | 184° |
| 2026-04-30 08:03 | 32.99585 | 130.15688 | 6697 ft | 175 kts | 184° |
| 2026-04-30 08:03 | 32.98276 | 130.15605 | 6827 ft | 204 kts | 184° |
| 2026-04-30 08:04 | 32.96795 | 130.15509 | 6414 ft | 218 kts | 184° |
| 2026-04-30 08:04 | 32.95302 | 130.15415 | 6086 ft | 211 kts | 184° |
| 2026-04-30 08:04 | 32.93870 | 130.15325 | 5849 ft | 200 kts | 184° |
| 2026-04-30 08:04 | 32.92505 | 130.15239 | 5629 ft | 192 kts | 184° |
| 2026-04-30 08:05 | 32.91217 | 130.15158 | 5428 ft | 183 kts | 184° |
| 2026-04-30 08:05 | 32.89961 | 130.15080 | 5243 ft | 180 kts | 184° |
| 2026-04-30 08:05 | 32.88707 | 130.15001 | 5050 ft | 181 kts | 184° |
| 2026-04-30 08:05 | 32.87466 | 130.14924 | 4947 ft | 176 kts | 184° |
| 2026-04-30 08:06 | 32.86251 | 130.14848 | 4845 ft | 174 kts | 184° |
| 2026-04-30 08:06 | 32.85020 | 130.14772 | 4788 ft | 180 kts | 184° |
| 2026-04-30 08:06 | 32.83755 | 130.14692 | 4713 ft | 184 kts | 184° |
| 2026-04-30 08:06 | 32.82464 | 130.14613 | 4632 ft | 185 kts | 184° |
| 2026-04-30 08:07 | 32.81183 | 130.14532 | 4522 ft | 182 kts | 184° |
| 2026-04-30 08:07 | 32.80021 | 130.14157 | 4325 ft | 175 kts | 219° |
| 2026-04-30 08:07 | 32.79225 | 130.13136 | 4219 ft | 165 kts | 227° |
| 2026-04-30 08:07 | 32.78460 | 130.12140 | 4053 ft | 162 kts | 226° |
| 2026-04-30 08:08 | 32.77710 | 130.11179 | 3865 ft | 159 kts | 225° |
| 2026-04-30 08:08 | 32.77257 | 130.10022 | 3646 ft | 161 kts | 274° |
| 2026-04-30 08:08 | 32.77617 | 130.08727 | 3568 ft | 169 kts | 288° |
| 2026-04-30 08:08 | 32.77995 | 130.07391 | 3366 ft | 169 kts | 287° |
| 2026-04-30 08:09 | 32.78353 | 130.06091 | 3174 ft | 166 kts | 287° |
| 2026-04-30 08:09 | 32.78928 | 130.04963 | 3020 ft | 158 kts | 320° |
| 2026-04-30 08:09 | 32.79759 | 130.04113 | 2847 ft | 156 kts | 319° |
| 2026-04-30 08:09 | 32.80559 | 130.03258 | 2677 ft | 156 kts | 319° |
| 2026-04-30 08:10 | 32.81368 | 130.02385 | 2593 ft | 158 kts | 319° |
| 2026-04-30 08:10 | 32.82200 | 130.01491 | 2273 ft | 163 kts | 320° |
| 2026-04-30 08:10 | 32.83006 | 130.00627 | 2032 ft | 149 kts | 320° |
| 2026-04-30 08:10 | 32.83763 | 129.99817 | 1854 ft | 146 kts | 320° |
| 2026-04-30 08:11 | 32.84528 | 129.99001 | 1664 ft | 148 kts | 320° |
| 2026-04-30 08:11 | 32.85290 | 129.98186 | 1455 ft | 147 kts | 320° |
| 2026-04-30 08:11 | 32.86051 | 129.97354 | 1207 ft | 148 kts | 317° |
| 2026-04-30 08:11 | 32.86762 | 129.96491 | 980 ft | 143 kts | 316° |
| 2026-04-30 08:12 | 32.87469 | 129.95668 | 749 ft | 141 kts | 319° |
| 2026-04-30 08:12 | 32.88189 | 129.94904 | 571 ft | 136 kts | 321° |
| 2026-04-30 08:12 | 32.88907 | 129.94191 | 495 ft | 136 kts | 322° |
| 2026-04-30 08:12 | 32.89647 | 129.93467 | 358 ft | 140 kts | 322° |
| 2026-04-30 08:13 | 32.90388 | 129.92721 | 149 ft | 136 kts | 321° |
| 2026-04-30 08:13 | 32.91090 | 129.91986 | 27 ft | 133 kts | 320° |
| 2026-04-30 08:13 | 32.91787 | 129.91248 | 22 ft | 135 kts | 320° |
| 2026-04-30 08:13 | 32.92396 | 129.90605 | 16 ft | 70 kts | 326° |
| 2026-04-30 08:14 | 32.92522 | 129.90464 | 17 ft | 17 kts | 318° |
| 2026-04-30 08:14 | 32.92592 | 129.90389 | 19 ft | 10 kts | 318° |
| 2026-04-30 08:14 | 32.92642 | 129.90336 | 21 ft | 9 kts | 319° |
| 2026-04-30 08:14 | 32.92694 | 129.90307 | 21 ft | 8 kts | 0° |
| 2026-04-30 08:15 | 32.92738 | 129.90337 | 20 ft | 9 kts | 50° |
| 2026-04-30 08:15 | 32.92784 | 129.90404 | 18 ft | 11 kts | 64° |
| 2026-04-30 08:15 | 32.92760 | 129.90483 | 19 ft | 12 kts | 137° |
| 2026-04-30 08:15 | 32.92698 | 129.90550 | 17 ft | 12 kts | 138° |
| 2026-04-30 08:16 | 32.92634 | 129.90619 | 19 ft | 13 kts | 138° |
| 2026-04-30 08:16 | 32.92561 | 129.90696 | 17 ft | 15 kts | 138° |
| 2026-04-30 08:16 | 32.92486 | 129.90777 | 16 ft | 15 kts | 138° |
| 2026-04-30 08:16 | 32.92404 | 129.90865 | 18 ft | 16 kts | 138° |
| 2026-04-30 08:17 | 32.92320 | 129.90954 | 16 ft | 16 kts | 138° |
| 2026-04-30 08:17 | 32.92233 | 129.91047 | 17 ft | 17 kts | 137° |
| 2026-04-30 08:17 | 32.92143 | 129.91143 | 17 ft | 18 kts | 138° |
| 2026-04-30 08:17 | 32.92049 | 129.91243 | 15 ft | 18 kts | 138° |
| 2026-04-30 08:18 | 32.91953 | 129.91346 | 16 ft | 19 kts | 138° |
| 2026-04-30 08:18 | 32.91858 | 129.91448 | 18 ft | 19 kts | 138° |
| 2026-04-30 08:18 | 32.91760 | 129.91552 | 17 ft | 19 kts | 138° |
| 2026-04-30 08:18 | 32.91694 | 129.91623 | 16 ft | 20 kts | 137° |
| 2026-04-30 08:19 | 32.91591 | 129.91732 | 16 ft | 20 kts | 138° |
| 2026-04-30 08:19 | 32.91488 | 129.91842 | 16 ft | 20 kts | 138° |
| 2026-04-30 08:19 | 32.91384 | 129.91953 | 16 ft | 20 kts | 138° |
| 2026-04-30 08:19 | 32.91277 | 129.92067 | 17 ft | 21 kts | 138° |
| 2026-04-30 08:20 | 32.91189 | 129.92162 | 16 ft | 7 kts | 138° |
| 2026-04-30 08:20 | 32.91184 | 129.92172 | 19 ft | 1 kts | 111° |
| 2026-04-30 08:20 | 32.91184 | 129.92173 | 19 ft | 0 kts | 106° |
| 2026-04-30 08:20 | 32.91187 | 129.92198 | 17 ft | 6 kts | 66° |
| 2026-04-30 08:21 | 32.91214 | 129.92236 | 18 ft | 6 kts | 47° |
| 2026-04-30 08:21 | 32.91242 | 129.92273 | 18 ft | 6 kts | 47° |
| 2026-04-30 08:21 | 32.91256 | 129.92290 | 18 ft | 1 kts | 46° |
| 2026-04-30 08:21 | 32.91259 | 129.92293 | 19 ft | 0 kts | 46° |